Time;durP1;ratioP1;P1;durP2;ratioP2;P2;SDS_P1;SDS_P2;PMS_P1;PMS_P2;Temp;Humidity;BMP_temperature;BMP_pressure;BME280_temperature;BME280_humidity;BME280_pressure;Samples;Min_cycle;Max_cycle;Signal;HPM_P1;HPM_P2
2021/08/27 00:01:33;;;;;;;1.80;1.70;;;17.80;43.60;;;;;;10453069;28;20881;-75
2021/08/27 00:06:38;;;;;;;2.63;1.80;;;17.80;43.80;;;;;;10452917;28;20240;-75
2021/08/27 00:11:42;;;;;;;2.20;2.00;;;17.80;44.30;;;;;;10453030;28;20228;-75
2021/08/27 00:16:45;;;;;;;2.43;2.20;;;17.70;43.80;;;;;;10452827;28;20221;-75
2021/08/27 00:21:49;;;;;;;2.27;2.07;;;17.70;43.80;;;;;;10452853;28;20217;-75
2021/08/27 00:26:53;;;;;;;2.40;2.20;;;17.60;44.20;;;;;;10452451;28;20251;-76
2021/08/27 00:31:56;;;;;;;2.60;2.13;;;17.60;44.00;;;;;;10452112;28;20231;-75
2021/08/27 00:37:04;;;;;;;2.77;2.40;;;17.60;44.10;;;;;;10451882;28;20225;-75
2021/08/27 00:42:07;;;;;;;2.90;2.30;;;17.60;44.40;;;;;;10451174;28;20610;-75
2021/08/27 00:47:10;;;;;;;5.47;2.60;;;17.60;44.10;;;;;;10451202;28;20244;-75
2021/08/27 00:52:15;;;;;;;2.80;2.20;;;17.60;43.90;;;;;;10451595;28;20236;-75
2021/08/27 00:57:18;;;;;;;1.87;1.77;;;17.50;44.10;;;;;;10451408;28;20232;-75
2021/08/27 01:02:21;;;;;;;3.60;2.10;;;17.50;44.10;;;;;;10451067;28;20232;-75
2021/08/27 01:07:30;;;;;;;2.10;1.90;;;17.40;43.90;;;;;;10450448;28;20220;-75
2021/08/27 01:12:38;;;;;;;2.40;2.20;;;17.40;44.40;;;;;;10450719;28;20236;-75
2021/08/27 01:17:47;;;;;;;2.10;2.00;;;17.40;44.60;;;;;;10450249;28;20240;-75
2021/08/27 01:23:22;;;;;;;1.90;1.70;;;17.30;44.70;;;;;;10450272;28;20221;-75
2021/08/27 01:28:28;;;;;;;1.87;1.67;;;17.20;44.90;;;;;;10449597;28;20239;-75
2021/08/27 01:33:33;;;;;;;1.90;1.80;;;17.20;44.70;;;;;;10449402;28;20233;-75
2021/08/27 01:38:40;;;;;;;1.70;1.60;;;17.10;44.50;;;;;;10448888;28;20227;-76
2021/08/27 01:43:46;;;;;;;1.60;1.50;;;17.10;44.80;;;;;;10448450;28;20236;-75
2021/08/27 01:48:50;;;;;;;1.73;1.47;;;17.10;44.70;;;;;;10448123;28;20229;-76
2021/08/27 01:53:55;;;;;;;1.60;1.50;;;17.10;44.40;;;;;;10447921;28;20229;-76
2021/08/27 01:59:00;;;;;;;1.53;1.43;;;17.00;44.90;;;;;;10448237;28;20752;-76
2021/08/27 02:04:05;;;;;;;1.37;1.27;;;17.00;44.80;;;;;;10448485;28;20724;-76
2021/08/27 02:09:13;;;;;;;1.30;1.20;;;16.90;44.70;;;;;;10448648;28;20240;-75
2021/08/27 02:14:16;;;;;;;1.73;1.40;;;16.90;45.00;;;;;;10448351;28;20792;-76
2021/08/27 02:19:20;;;;;;;4.47;1.90;;;16.90;44.90;;;;;;10447491;28;20237;-75
2021/08/27 02:24:31;;;;;;;2.20;2.00;;;16.90;44.80;;;;;;10447939;28;20263;-75
2021/08/27 02:29:35;;;;;;;2.73;1.90;;;16.90;45.70;;;;;;10447795;28;20233;-75
2021/08/27 02:34:42;;;;;;;2.10;1.90;;;16.90;45.00;;;;;;10447623;28;20225;-75
2021/08/27 02:39:47;;;;;;;2.00;1.90;;;16.80;45.10;;;;;;10447888;28;20233;-76
2021/08/27 02:44:50;;;;;;;2.10;1.90;;;16.80;45.20;;;;;;10447359;28;20220;-76
2021/08/27 02:49:53;;;;;;;1.87;1.67;;;16.80;45.00;;;;;;10447131;28;20255;-75
2021/08/27 02:55:05;;;;;;;1.90;1.80;;;16.80;44.90;;;;;;10446901;28;20626;-75
2021/08/27 03:00:09;;;;;;;1.83;1.70;;;16.70;45.80;;;;;;10446902;28;20611;-76
2021/08/27 03:05:15;;;;;;;2.17;1.60;;;16.70;45.30;;;;;;10446785;28;20266;-75
2021/08/27 03:10:25;;;;;;;2.30;1.50;;;16.70;45.80;;;;;;10446956;28;20249;-75
2021/08/27 03:15:30;;;;;;;1.67;1.57;;;16.70;45.80;;;;;;10446641;28;20229;-75
2021/08/27 03:20:43;;;;;;;1.80;1.67;;;16.70;45.80;;;;;;10446565;28;20225;-75
2021/08/27 03:25:48;;;;;;;1.77;1.67;;;16.60;45.70;;;;;;10446104;28;20239;-75
2021/08/27 03:30:54;;;;;;;1.60;1.50;;;16.60;45.70;;;;;;10435915;28;20229;-75
2021/08/27 03:35:58;;;;;;;2.20;1.80;;;16.70;45.60;;;;;;10453903;28;20232;-75
2021/08/27 03:41:03;;;;;;;2.23;1.50;;;16.70;45.20;;;;;;10453877;28;20256;-75
2021/08/27 03:46:06;;;;;;;2.03;1.80;;;16.60;45.70;;;;;;10453817;28;20248;-75
2021/08/27 03:51:10;;;;;;;2.03;1.83;;;16.50;45.40;;;;;;10453609;28;20263;-75
2021/08/27 03:56:16;;;;;;;2.00;1.90;;;16.50;45.60;;;;;;10453596;28;20233;-75
2021/08/27 04:01:21;;;;;;;2.53;2.20;;;16.40;45.60;;;;;;10434199;28;20713;-75
2021/08/27 04:06:24;;;;;;;2.50;2.30;;;16.40;45.60;;;;;;10411842;28;20325;-75
2021/08/27 04:11:29;;;;;;;2.87;2.67;;;16.30;45.50;;;;;;10411584;28;20238;-75
2021/08/27 04:16:32;;;;;;;2.77;2.57;;;16.30;45.50;;;;;;10411717;28;20589;-75
2021/08/27 04:21:35;;;;;;;2.77;2.53;;;16.20;45.40;;;;;;10411208;28;20235;-75
2021/08/27 04:26:40;;;;;;;2.60;2.33;;;16.20;45.40;;;;;;10411233;28;20226;-75
2021/08/27 04:31:43;;;;;;;2.60;2.40;;;16.20;46.10;;;;;;10410950;28;20785;-75
2021/08/27 04:36:46;;;;;;;2.93;2.67;;;16.20;45.60;;;;;;10410778;28;20233;-76
2021/08/27 04:41:51;;;;;;;2.23;2.13;;;16.20;45.50;;;;;;10409889;28;20710;-76
2021/08/27 04:46:54;;;;;;;2.40;2.20;;;16.20;46.00;;;;;;10425896;28;20697;-75
2021/08/27 04:51:58;;;;;;;2.50;2.30;;;16.20;45.70;;;;;;10450886;28;20225;-75
2021/08/27 04:57:03;;;;;;;2.87;2.60;;;16.20;45.40;;;;;;10451652;28;20226;-75
2021/08/27 05:02:06;;;;;;;2.70;2.50;;;16.20;46.30;;;;;;10451271;28;20229;-75
2021/08/27 05:07:10;;;;;;;3.03;2.83;;;16.20;45.60;;;;;;10451040;28;20232;-75
2021/08/27 05:12:15;;;;;;;3.60;3.20;;;16.20;45.50;;;;;;10450919;28;20228;-76
2021/08/27 05:17:18;;;;;;;3.63;3.33;;;16.20;46.30;;;;;;10450557;28;20247;-75
2021/08/27 05:22:21;;;;;;;4.33;3.40;;;16.20;46.10;;;;;;10450606;28;20290;-75
2021/08/27 05:27:26;;;;;;;4.20;3.87;;;16.20;46.20;;;;;;10450199;28;20229;-75
2021/08/27 05:32:29;;;;;;;4.50;3.93;;;16.20;46.70;;;;;;10449713;28;20225;-75
2021/08/27 05:37:32;;;;;;;5.43;4.00;;;16.20;46.30;;;;;;10450017;28;20223;-75
2021/08/27 05:42:37;;;;;;;4.33;3.93;;;16.20;46.40;;;;;;10448966;28;20265;-75
2021/08/27 05:47:41;;;;;;;5.60;3.80;;;16.30;47.10;;;;;;10449666;28;20231;-75
2021/08/27 05:52:45;;;;;;;3.90;3.60;;;16.30;46.80;;;;;;10448934;28;20229;-75
2021/08/27 05:57:50;;;;;;;3.63;3.33;;;16.40;46.80;;;;;;10448566;28;20220;-75
2021/08/27 06:02:54;;;;;;;3.63;3.33;;;16.40;47.50;;;;;;10447494;28;20233;-74
2021/08/27 06:07:58;;;;;;;4.50;4.07;;;16.50;46.70;;;;;;10447787;28;20225;-75
2021/08/27 06:13:03;;;;;;;4.73;4.23;;;16.50;46.40;;;;;;10448300;28;20316;-75
2021/08/27 06:18:07;;;;;;;4.40;4.00;;;16.50;47.00;;;;;;10446873;28;20221;-74
2021/08/27 06:23:10;;;;;;;4.87;4.37;;;16.50;46.90;;;;;;10447935;28;20920;-75
2021/08/27 06:28:16;;;;;;;4.97;4.03;;;16.60;46.60;;;;;;10447738;28;20685;-75
2021/08/27 06:33:19;;;;;;;4.53;4.20;;;16.60;46.70;;;;;;10445721;28;20244;-75
2021/08/27 06:38:23;;;;;;;4.67;4.27;;;16.60;46.50;;;;;;10440758;28;20232;-74
2021/08/27 06:43:30;;;;;;;4.80;4.40;;;16.60;46.70;;;;;;10440010;28;20233;-74
2021/08/27 06:48:34;;;;;;;5.10;4.70;;;16.60;46.80;;;;;;10441511;28;20235;-74
2021/08/27 06:53:38;;;;;;;4.63;4.10;;;16.60;46.60;;;;;;10427595;28;20225;-75
2021/08/27 06:58:42;;;;;;;4.30;3.83;;;16.60;46.60;;;;;;10422595;28;20217;-74
2021/08/27 07:03:45;;;;;;;4.43;4.07;;;16.70;46.80;;;;;;10438758;28;20252;-74
2021/08/27 07:08:49;;;;;;;4.97;4.50;;;16.70;46.70;;;;;;10438649;28;20282;-75
2021/08/27 07:13:53;;;;;;;4.90;4.40;;;16.70;46.70;;;;;;10442343;28;20231;-75
2021/08/27 07:18:56;;;;;;;5.57;4.33;;;16.70;47.20;;;;;;10439453;28;20213;-75
2021/08/27 07:24:00;;;;;;;4.97;4.50;;;16.80;46.90;;;;;;10453467;28;20220;-76
2021/08/27 07:29:04;;;;;;;5.37;4.37;;;16.90;46.70;;;;;;10454627;28;20235;-75
2021/08/27 07:34:07;;;;;;;4.97;4.20;;;17.00;47.20;;;;;;10454460;28;20247;-75
2021/08/27 07:39:11;;;;;;;4.03;3.63;;;17.00;46.80;;;;;;10446606;28;20305;-75
2021/08/27 07:44:15;;;;;;;6.37;4.30;;;17.00;46.80;;;;;;10445609;28;20243;-75
2021/08/27 07:49:20;;;;;;;4.70;4.27;;;17.00;47.90;;;;;;10438498;28;20633;-75
2021/08/27 07:54:23;;;;;;;4.37;4.00;;;17.10;47.50;;;;;;10433855;28;20233;-77
2021/08/27 07:59:27;;;;;;;4.70;3.80;;;17.20;47.30;;;;;;10417636;28;20248;-77
2021/08/27 08:04:31;;;;;;;4.43;3.80;;;17.30;46.60;;;;;;10442860;28;20241;-75
2021/08/27 08:09:34;;;;;;;3.80;3.50;;;17.30;47.00;;;;;;10449514;28;20231;-75
2021/08/27 08:14:39;;;;;;;4.77;3.80;;;17.40;47.30;;;;;;10438944;28;20332;-73
2021/08/27 08:19:42;;;;;;;4.07;3.77;;;17.50;46.50;;;;;;10437324;28;20274;-75
2021/08/27 08:24:45;;;;;;;4.37;3.60;;;17.60;46.90;;;;;;10432640;28;20243;-75
2021/08/27 08:29:50;;;;;;;3.30;3.00;;;17.70;46.70;;;;;;10443450;28;20225;-74
2021/08/27 08:34:53;;;;;;;3.17;2.50;;;17.80;46.80;;;;;;10438425;28;20596;-75
2021/08/27 08:39:56;;;;;;;4.07;2.80;;;17.90;46.90;;;;;;10449235;28;20705;-76
2021/08/27 08:45:01;;;;;;;3.67;2.60;;;18.00;46.30;;;;;;10447636;28;20231;-76
2021/08/27 08:50:05;;;;;;;2.80;2.40;;;18.10;47.10;;;;;;10449137;28;20221;-75
2021/08/27 08:55:10;;;;;;;3.27;2.80;;;18.10;46.40;;;;;;10449542;28;20239;-78
2021/08/27 09:00:16;;;;;;;3.33;2.43;;;18.20;46.20;;;;;;10454149;28;20229;-76
2021/08/27 09:05:21;;;;;;;2.43;2.27;;;18.30;46.20;;;;;;10450778;28;20236;-76
2021/08/27 09:10:26;;;;;;;2.50;2.30;;;18.30;46.10;;;;;;10438168;28;20724;-76
2021/08/27 09:15:30;;;;;;;2.87;2.10;;;18.30;45.80;;;;;;10443702;28;20224;-77
2021/08/27 09:20:34;;;;;;;2.33;2.13;;;18.30;46.10;;;;;;10442923;28;20228;-76
2021/08/27 09:25:41;;;;;;;2.47;2.10;;;18.40;45.80;;;;;;10445667;28;20608;-77
2021/08/27 09:30:56;;;;;;;2.57;2.10;;;18.50;46.00;;;;;;10448611;28;20705;-76
2021/08/27 09:36:02;;;;;;;2.00;1.90;;;18.50;44.80;;;;;;10441727;28;20232;-76
2021/08/27 09:41:07;;;;;;;1.63;1.53;;;18.60;45.00;;;;;;10452577;28;20221;-75
2021/08/27 09:46:34;;;;;;;2.80;1.60;;;18.60;44.70;;;;;;10450097;28;20235;-77
2021/08/27 09:51:43;;;;;;;3.43;1.50;;;18.60;44.80;;;;;;10446910;28;20245;-77
2021/08/27 09:56:48;;;;;;;1.70;1.60;;;18.70;44.30;;;;;;10445734;28;20235;-76
2021/08/27 10:01:52;;;;;;;1.70;1.60;;;18.70;44.40;;;;;;10443734;28;20228;-77
2021/08/27 10:06:57;;;;;;;1.50;1.40;;;18.80;44.10;;;;;;10450224;28;20224;-77
2021/08/27 10:12:00;;;;;;;2.37;1.27;;;18.80;44.10;;;;;;10445143;28;20221;-77
2021/08/27 10:17:05;;;;;;;1.97;1.30;;;18.80;44.10;;;;;;10443636;28;20225;-76
2021/08/27 10:22:09;;;;;;;1.30;1.20;;;18.90;43.20;;;;;;10444813;28;20228;-77
2021/08/27 10:27:13;;;;;;;1.70;1.37;;;18.90;44.40;;;;;;10445639;28;20228;-77
2021/08/27 10:32:52;;;;;;;2.07;1.50;;;19.00;44.10;;;;;;10463631;28;20232;-75
2021/08/27 10:37:57;;;;;;;1.33;1.23;;;19.20;43.70;;;;;;10446146;28;20221;-76
2021/08/27 10:43:01;;;;;;;1.33;1.20;;;19.10;43.20;;;;;;10451122;28;21173;-76
2021/08/27 10:48:10;;;;;;;1.50;1.13;;;19.20;42.80;;;;;;10449310;28;20228;-77
2021/08/27 10:53:30;;;;;;;1.30;1.13;;;19.20;41.40;;;;;;10434513;28;20237;-76
2021/08/27 10:58:40;;;;;;;2.50;1.30;;;19.30;41.70;;;;;;10442176;28;20249;-76
2021/08/27 11:04:07;;;;;;;1.73;1.40;;;19.50;41.10;;;;;;10449448;28;20225;-76
2021/08/27 11:09:23;;;;;;;2.63;1.53;;;19.60;41.50;;;;;;10441072;28;20673;-75
2021/08/27 11:14:26;;;;;;;1.50;1.40;;;19.60;41.00;;;;;;10441005;28;20228;-76
2021/08/27 11:19:31;;;;;;;1.13;1.03;;;19.60;41.70;;;;;;10447447;28;20228;-76
2021/08/27 11:24:35;;;;;;;1.40;1.30;;;19.70;41.80;;;;;;10445743;28;20232;-76
2021/08/27 11:29:40;;;;;;;1.97;1.20;;;19.80;41.30;;;;;;10447095;28;20239;-75
2021/08/27 11:34:51;;;;;;;1.27;1.17;;;19.90;41.20;;;;;;10446374;28;20231;-75
2021/08/27 11:39:56;;;;;;;1.43;1.30;;;19.90;40.00;;;;;;10445661;28;20217;-75
2021/08/27 11:45:04;;;;;;;1.20;1.10;;;19.90;39.70;;;;;;10442906;28;20221;-75
2021/08/27 11:50:10;;;;;;;1.20;1.10;;;19.90;39.80;;;;;;10453977;28;20228;-77
2021/08/27 11:55:16;;;;;;;1.97;1.10;;;19.90;39.40;;;;;;10455733;28;20255;-77
2021/08/27 12:00:21;;;;;;;2.90;1.20;;;19.90;39.60;;;;;;10456643;28;20765;-77
2021/08/27 12:05:25;;;;;;;2.00;1.40;;;19.90;39.40;;;;;;10458820;28;20232;-77
2021/08/27 12:10:32;;;;;;;1.40;1.10;;;19.90;39.50;;;;;;10457416;28;20232;-77
2021/08/27 12:15:39;;;;;;;5.93;1.47;;;20.00;39.70;;;;;;10451863;28;20236;-75
2021/08/27 12:20:44;;;;;;;1.53;1.20;;;20.20;39.60;;;;;;10449127;28;20274;-77
2021/08/27 12:25:54;;;;;;;1.27;1.17;;;20.40;39.60;;;;;;10453484;28;20232;-76
2021/08/27 12:31:02;;;;;;;1.30;1.20;;;20.50;38.30;;;;;;10449484;28;20746;-76
2021/08/27 12:36:11;;;;;;;1.40;1.30;;;20.60;38.80;;;;;;10454654;28;20224;-78
2021/08/27 12:41:18;;;;;;;2.47;1.33;;;20.60;37.00;;;;;;10452921;28;20286;-77
2021/08/27 12:46:29;;;;;;;2.77;1.40;;;20.60;37.00;;;;;;10447315;28;20717;-77
2021/08/27 12:51:34;;;;;;;2.10;1.50;;;20.50;36.70;;;;;;10454728;28;20316;-78
2021/08/27 12:56:38;;;;;;;1.60;1.40;;;20.50;37.20;;;;;;10455214;28;20225;-78
2021/08/27 13:01:43;;;;;;;1.37;1.27;;;20.40;37.80;;;;;;10451902;28;20229;-78
2021/08/27 13:06:50;;;;;;;1.50;1.30;;;20.50;38.00;;;;;;10452337;28;21004;-77
2021/08/27 13:11:56;;;;;;;1.40;1.30;;;20.60;37.80;;;;;;10450360;28;20268;-77
2021/08/27 13:17:01;;;;;;;1.50;1.20;;;20.60;37.80;;;;;;10451051;28;20227;-77
2021/08/27 13:22:09;;;;;;;1.57;1.37;;;20.60;37.60;;;;;;10450622;28;20717;-76
2021/08/27 13:27:14;;;;;;;2.07;1.50;;;20.60;36.70;;;;;;10449717;28;20249;-76
2021/08/27 13:32:23;;;;;;;2.80;1.50;;;20.60;37.00;;;;;;10449636;28;20243;-76
2021/08/27 13:37:27;;;;;;;2.27;1.60;;;20.50;35.30;;;;;;10449084;28;20231;-76
2021/08/27 13:42:32;;;;;;;1.80;1.30;;;20.40;36.90;;;;;;10449248;28;20228;-79
2021/08/27 13:47:35;;;;;;;2.73;1.23;;;20.30;36.80;;;;;;10450218;28;20228;-78
2021/08/27 13:52:41;;;;;;;1.40;1.30;;;20.00;37.30;;;;;;10450916;28;20236;-77
2021/08/27 13:57:48;;;;;;;2.40;1.47;;;20.00;37.60;;;;;;10449945;28;20220;-77
2021/08/27 14:02:51;;;;;;;1.50;1.37;;;19.90;38.10;;;;;;10449766;28;20221;-78
2021/08/27 14:07:55;;;;;;;1.53;1.20;;;20.00;38.20;;;;;;10449861;28;20224;-78
2021/08/27 14:13:00;;;;;;;2.03;1.57;;;20.00;38.20;;;;;;10452381;28;20236;-78
2021/08/27 14:18:03;;;;;;;1.63;1.13;;;20.10;37.60;;;;;;10450512;28;20228;-77
2021/08/27 14:23:08;;;;;;;2.10;1.07;;;20.10;37.90;;;;;;10450707;28;20603;-78
2021/08/27 14:28:12;;;;;;;1.73;1.20;;;20.20;38.20;;;;;;10452293;28;20229;-78
2021/08/27 14:33:16;;;;;;;1.37;1.27;;;20.30;37.40;;;;;;10452728;28;20255;-78
2021/08/27 14:38:21;;;;;;;1.90;1.40;;;20.40;38.00;;;;;;10456472;28;20743;-78
2021/08/27 14:43:25;;;;;;;1.77;1.20;;;20.50;37.60;;;;;;10451278;28;20225;-79
2021/08/27 14:48:29;;;;;;;1.20;1.10;;;20.60;37.00;;;;;;10451112;28;20221;-78
2021/08/27 14:53:33;;;;;;;1.30;1.20;;;20.60;36.10;;;;;;10449724;28;20235;-78
2021/08/27 14:58:37;;;;;;;1.30;1.20;;;20.50;36.90;;;;;;10449807;28;20724;-78
2021/08/27 15:03:43;;;;;;;1.87;1.30;;;20.50;36.90;;;;;;10448391;28;20233;-77
2021/08/27 15:08:47;;;;;;;1.13;1.03;;;20.60;37.00;;;;;;10448681;28;20235;-78
2021/08/27 15:13:52;;;;;;;1.13;1.03;;;20.70;36.80;;;;;;10449458;28;20287;-78
2021/08/27 15:18:55;;;;;;;2.00;1.20;;;20.80;36.10;;;;;;10449760;28;20225;-78
2021/08/27 15:23:58;;;;;;;2.47;1.70;;;20.80;37.20;;;;;;10451242;28;20248;-77
2021/08/27 15:29:05;;;;;;;2.77;2.00;;;20.80;36.00;;;;;;10457205;28;20243;-78
2021/08/27 15:34:11;;;;;;;4.63;4.23;;;20.80;35.20;;;;;;10418678;28;20233;-78
2021/08/27 15:39:14;;;;;;;1.40;1.30;;;20.70;35.30;;;;;;10414645;28;20242;-76
2021/08/27 15:44:23;;;;;;;1.17;1.00;;;20.70;36.40;;;;;;10412560;28;20239;-77
2021/08/27 15:49:27;;;;;;;1.60;1.27;;;20.60;35.40;;;;;;10412642;28;20222;-77
2021/08/27 15:54:30;;;;;;;1.67;0.97;;;20.70;36.20;;;;;;10413352;28;20244;-76
2021/08/27 15:59:35;;;;;;;2.60;1.10;;;20.60;36.20;;;;;;10412884;28;20877;-77
2021/08/27 16:04:40;;;;;;;1.10;1.00;;;20.60;35.60;;;;;;10412299;28;20593;-77
2021/08/27 16:09:43;;;;;;;1.63;1.00;;;20.60;36.20;;;;;;10412307;28;20245;-77
2021/08/27 16:14:48;;;;;;;1.10;1.00;;;20.70;37.10;;;;;;10411763;28;20229;-77
2021/08/27 16:19:51;;;;;;;1.43;1.10;;;20.70;36.10;;;;;;10410798;28;20748;-77
2021/08/27 16:24:55;;;;;;;1.33;1.10;;;20.60;36.40;;;;;;10410683;28;20324;-77
2021/08/27 16:29:59;;;;;;;1.17;1.07;;;20.60;35.90;;;;;;10410490;28;20226;-77
2021/08/27 16:35:03;;;;;;;1.10;1.00;;;20.60;35.40;;;;;;10409179;28;20957;-77
2021/08/27 16:40:07;;;;;;;2.33;1.20;;;20.60;36.00;;;;;;10410454;28;20253;-77
2021/08/27 16:45:12;;;;;;;1.33;1.23;;;20.70;35.60;;;;;;10441166;28;20328;-77
2021/08/27 16:50:15;;;;;;;1.40;1.00;;;20.60;35.30;;;;;;10450997;28;20225;-77
2021/08/27 16:55:19;;;;;;;1.13;1.00;;;20.70;35.80;;;;;;10450840;28;20731;-77
2021/08/27 17:00:23;;;;;;;1.20;1.10;;;20.60;35.50;;;;;;10450740;28;20248;-77
2021/08/27 17:05:27;;;;;;;0.90;0.90;;;20.60;35.30;;;;;;10450667;28;20986;-77
2021/08/27 17:10:30;;;;;;;2.40;0.87;;;20.70;35.60;;;;;;10450436;28;20841;-77
2021/08/27 17:15:34;;;;;;;1.30;0.90;;;20.70;35.40;;;;;;10450031;28;20225;-77
2021/08/27 17:20:38;;;;;;;0.93;0.90;;;20.70;35.00;;;;;;10449811;28;20221;-77
2021/08/27 17:25:41;;;;;;;1.33;1.10;;;20.70;35.30;;;;;;10450630;28;20232;-77
2021/08/27 17:30:46;;;;;;;0.90;0.90;;;20.60;35.10;;;;;;10451330;28;20225;-77
2021/08/27 17:35:51;;;;;;;0.80;0.80;;;20.60;35.10;;;;;;10448741;28;20690;-77
2021/08/27 17:40:54;;;;;;;2.10;1.07;;;20.60;35.70;;;;;;10449089;28;20282;-77
2021/08/27 17:45:59;;;;;;;1.00;1.00;;;20.50;35.40;;;;;;10446480;28;20228;-77
2021/08/27 17:51:03;;;;;;;1.10;1.03;;;20.50;35.50;;;;;;10446728;28;20720;-77
2021/08/27 17:56:06;;;;;;;0.97;0.97;;;20.50;35.90;;;;;;10454817;28;20229;-78
2021/08/27 18:01:22;;;;;;;1.27;1.17;;;20.50;36.10;;;;;;10460089;28;20940;-78
2021/08/27 18:06:26;;;;;;;1.27;0.93;;;20.40;35.30;;;;;;10461688;28;20233;-78
2021/08/27 18:11:29;;;;;;;1.30;1.20;;;20.30;35.60;;;;;;10462285;28;20256;-78
2021/08/27 18:16:34;;;;;;;1.20;1.10;;;20.20;35.80;;;;;;10462494;28;20233;-78
2021/08/27 18:21:37;;;;;;;1.40;1.30;;;20.00;35.80;;;;;;10462197;28;20284;-78
2021/08/27 18:26:40;;;;;;;1.37;1.10;;;19.90;36.40;;;;;;10461812;28;20228;-78
2021/08/27 18:31:45;;;;;;;1.43;1.30;;;19.80;36.30;;;;;;10447950;28;20235;-77
2021/08/27 18:36:50;;;;;;;2.60;1.40;;;19.80;36.30;;;;;;10448121;28;20230;-77
2021/08/27 18:41:54;;;;;;;2.70;1.20;;;19.80;36.30;;;;;;10448248;28;20235;-77
2021/08/27 18:46:58;;;;;;;1.20;1.10;;;19.70;36.20;;;;;;10451807;28;20235;-78
2021/08/27 18:52:04;;;;;;;1.40;1.30;;;19.70;36.20;;;;;;10450217;28;20918;-77
2021/08/27 18:57:07;;;;;;;1.30;1.20;;;19.60;36.20;;;;;;10449622;28;20221;-80
2021/08/27 19:02:12;;;;;;;1.33;1.23;;;19.60;36.20;;;;;;10449139;28;20236;-77
2021/08/27 19:07:15;;;;;;;1.60;1.50;;;19.60;36.20;;;;;;10445173;28;20279;-78
2021/08/27 19:12:19;;;;;;;1.60;1.50;;;19.50;36.10;;;;;;10426525;28;20597;-78
2021/08/27 19:17:24;;;;;;;2.33;1.70;;;19.40;36.00;;;;;;10450390;28;20243;-78
2021/08/27 19:22:27;;;;;;;2.50;1.40;;;19.30;35.90;;;;;;10459687;28;20244;-78
2021/08/27 19:27:30;;;;;;;1.60;1.50;;;19.10;36.00;;;;;;10455088;28;20311;-78
2021/08/27 19:32:36;;;;;;;2.60;1.50;;;19.10;36.20;;;;;;10456610;28;20315;-78
2021/08/27 19:37:39;;;;;;;1.60;1.50;;;19.10;36.30;;;;;;10457670;28;20303;-78
2021/08/27 19:42:42;;;;;;;2.37;1.50;;;19.00;36.40;;;;;;10457774;28;20239;-78
2021/08/27 19:47:47;;;;;;;1.60;1.50;;;19.00;36.30;;;;;;10458213;28;20264;-78
2021/08/27 19:52:51;;;;;;;1.93;1.73;;;18.90;36.40;;;;;;10455981;28;20229;-79
2021/08/27 19:57:54;;;;;;;1.70;1.60;;;18.90;36.60;;;;;;10435082;28;20232;-78
2021/08/27 20:02:59;;;;;;;1.60;1.50;;;18.90;36.70;;;;;;10434555;28;20225;-78
2021/08/27 20:08:02;;;;;;;1.97;1.70;;;18.90;36.70;;;;;;10455854;28;20279;-78
2021/08/27 20:13:06;;;;;;;2.00;1.90;;;18.90;36.80;;;;;;10462495;28;20279;-79
2021/08/27 20:18:11;;;;;;;2.07;1.60;;;18.80;36.70;;;;;;10463356;28;20648;-78
2021/08/27 20:23:14;;;;;;;1.90;1.70;;;18.80;36.90;;;;;;10451677;28;20248;-78
2021/08/27 20:28:18;;;;;;;2.03;1.90;;;18.80;37.10;;;;;;10462737;28;20331;-79
2021/08/27 20:33:22;;;;;;;3.60;1.90;;;18.70;37.00;;;;;;10463532;28;20312;-78
2021/08/27 20:38:26;;;;;;;2.30;2.10;;;18.70;37.20;;;;;;10461324;28;20225;-78
2021/08/27 20:43:29;;;;;;;2.43;2.23;;;18.70;37.10;;;;;;10459764;28;20864;-78
2021/08/27 20:48:34;;;;;;;2.83;2.40;;;18.60;37.30;;;;;;10459197;28;20233;-78
2021/08/27 20:53:37;;;;;;;2.60;2.40;;;18.60;37.60;;;;;;10454668;28;20235;-78
2021/08/27 20:58:41;;;;;;;2.70;2.50;;;18.60;37.60;;;;;;10455396;28;20227;-78
2021/08/27 21:03:45;;;;;;;2.87;2.57;;;18.60;37.60;;;;;;10453063;28;20252;-78
2021/08/27 21:08:49;;;;;;;2.80;2.60;;;18.50;37.70;;;;;;10454639;28;20229;-78
2021/08/27 21:13:53;;;;;;;3.00;2.80;;;18.40;37.80;;;;;;10452057;28;20237;-78
2021/08/27 21:18:57;;;;;;;3.40;3.10;;;18.30;38.20;;;;;;10454496;28;20239;-78
2021/08/27 21:24:03;;;;;;;3.33;3.03;;;18.20;38.50;;;;;;10441595;28;20789;-79
2021/08/27 21:29:06;;;;;;;2.60;2.40;;;18.20;38.60;;;;;;10451884;28;20239;-77
2021/08/27 21:34:11;;;;;;;3.60;3.30;;;18.00;38.60;;;;;;10451376;28;20320;-78
2021/08/27 21:39:14;;;;;;;3.53;3.23;;;17.90;39.30;;;;;;10451518;28;20251;-78
2021/08/27 21:44:17;;;;;;;3.60;3.10;;;17.80;39.10;;;;;;10452731;28;20239;-78
2021/08/27 21:49:22;;;;;;;3.40;3.10;;;17.80;39.30;;;;;;10452371;28;20228;-78
2021/08/27 21:54:25;;;;;;;3.20;3.00;;;17.70;39.50;;;;;;10453500;28;20233;-78
2021/08/27 21:59:30;;;;;;;3.30;3.00;;;17.60;39.30;;;;;;10453519;28;20304;-78
2021/08/27 22:04:38;;;;;;;4.77;2.93;;;17.60;39.70;;;;;;10452361;28;20229;-79
2021/08/27 22:09:41;;;;;;;3.53;3.23;;;17.60;39.90;;;;;;10452607;28;20769;-78
2021/08/27 22:14:44;;;;;;;3.37;3.07;;;17.60;39.30;;;;;;10453872;28;20606;-78
2021/08/27 22:19:49;;;;;;;2.77;2.57;;;17.60;39.60;;;;;;10452303;28;20220;-78
2021/08/27 22:24:52;;;;;;;3.40;3.10;;;17.60;39.80;;;;;;10453303;28;20225;-78
2021/08/27 22:29:56;;;;;;;3.57;3.27;;;17.60;39.50;;;;;;10456564;28;20225;-78
2021/08/27 22:35:01;;;;;;;3.50;3.20;;;17.60;39.90;;;;;;10456439;28;20725;-78
2021/08/27 22:40:05;;;;;;;3.77;3.47;;;17.60;40.10;;;;;;10457320;28;20719;-78
2021/08/27 22:45:09;;;;;;;3.63;3.33;;;17.60;39.80;;;;;;10457169;28;20233;-78
2021/08/27 22:50:14;;;;;;;4.13;3.73;;;17.60;39.90;;;;;;10457351;28;20578;-78
2021/08/27 22:55:17;;;;;;;4.07;3.70;;;17.60;40.20;;;;;;10452492;28;20232;-78
2021/08/27 23:00:20;;;;;;;3.90;3.60;;;17.50;40.00;;;;;;10451231;28;20224;-77
2021/08/27 23:05:25;;;;;;;4.70;4.30;;;17.50;40.30;;;;;;10450540;28;20225;-77
2021/08/27 23:10:29;;;;;;;4.07;3.70;;;17.40;40.70;;;;;;10448930;28;20225;-78
2021/08/27 23:15:34;;;;;;;4.43;3.80;;;17.40;40.80;;;;;;10448954;28;20240;-77
2021/08/27 23:20:39;;;;;;;4.37;3.97;;;17.40;41.10;;;;;;10448549;28;20644;-77
2021/08/27 23:25:43;;;;;;;4.67;4.13;;;17.40;41.10;;;;;;10448136;28;20233;-78
2021/08/27 23:30:46;;;;;;;4.47;4.07;;;17.40;40.70;;;;;;10447879;28;20228;-77
2021/08/27 23:35:50;;;;;;;4.80;4.27;;;17.30;40.60;;;;;;10447286;28;20224;-77
2021/08/27 23:40:56;;;;;;;4.47;4.17;;;17.30;41.20;;;;;;10450222;28;20231;-77
2021/08/27 23:45:59;;;;;;;4.63;4.23;;;17.30;41.50;;;;;;10452909;28;20228;-77
2021/08/27 23:51:04;;;;;;;4.40;4.00;;;17.30;41.00;;;;;;10456778;28;20236;-77
2021/08/27 23:56:08;;;;;;;3.80;3.50;;;17.20;41.40;;;;;;10458940;28;20591;-77
